Terminal Aerodrome Forecast
Issued by NWS

Home | Current Version | Previous Version | Text Only | Print | Product List | Glossary On
Versions: 1 2 3 4 5 6 7 8 9 10 11 12 13 14 15 16 17 18 19 20 21
000
FTUS41 KBGM 300521
TAFRME
TAF
KRME 300521Z 3006/0106 VRB03KT P6SM OVC250
     FM301200 11006KT P6SM -SHRA SCT030 BKN050
      TEMPO 3015/3018 3SM -SHRA BR BKN030
     FM302100 11011G20KT P6SM OVC040
     FM010400 12007KT P6SM BKN030=

USA.gov is the U.S. government's official web portal to all federal, state and local government web resources and services.